Time;durP1;ratioP1;P1;durP2;ratioP2;P2;SDS_P1;SDS_P2;PMS_P1;PMS_P2;Temp;Humidity;BMP_temperature;BMP_pressure;BME280_temperature;BME280_humidity;BME280_pressure;Samples;Min_cycle;Max_cycle;Signal;HPM_P1;HPM_P2
2023/12/13 00:00:19;;;;;;;11.10;6.43;;;;;;;;;;5080523;28;20217;-77
2023/12/13 00:02:45;;;;;;;9.33;5.47;;;;;;;;;;5077698;28;20697;-78
2023/12/13 00:05:11;;;;;;;16.57;6.57;;;;;;;;;;5075505;28;20244;-77
2023/12/13 00:07:37;;;;;;;9.13;5.40;;;;;;;;;;5082581;28;20217;-78
2023/12/13 00:10:04;;;;;;;12.07;5.77;;;;;;;;;;5079502;28;20214;-78
2023/12/13 00:12:30;;;;;;;10.30;6.00;;;;;;;;;;5078533;28;20240;-77
2023/12/13 00:14:56;;;;;;;12.80;6.17;;;;;;;;;;5076915;28;20191;-77
2023/12/13 00:17:22;;;;;;;14.17;6.73;;;;;;;;;;5072082;28;20558;-77
2023/12/13 00:19:48;;;;;;;12.50;6.57;;;;;;;;;;5078029;28;20210;-76
2023/12/13 00:22:14;;;;;;;10.80;6.50;;;;;;;;;;5080275;28;20217;-78
2023/12/13 00:24:40;;;;;;;13.00;6.93;;;;;;;;;;5074792;28;20705;-77
2023/12/13 00:27:06;;;;;;;11.47;6.83;;;;;;;;;;5077461;28;20234;-78
2023/12/13 00:29:32;;;;;;;12.60;6.43;;;;;;;;;;5084749;28;20701;-77
2023/12/13 00:31:58;;;;;;;14.47;7.00;;;;;;;;;;5083612;28;20210;-76
2023/12/13 00:34:24;;;;;;;14.77;8.10;;;;;;;;;;5074973;28;20689;-78
2023/12/13 00:36:50;;;;;;;16.00;7.20;;;;;;;;;;5086845;28;20246;-77
2023/12/13 00:39:16;;;;;;;14.70;7.63;;;;;;;;;;5084247;28;20186;-78
2023/12/13 00:41:42;;;;;;;12.57;6.77;;;;;;;;;;5085883;28;20178;-78
2023/12/13 00:44:08;;;;;;;13.30;6.93;;;;;;;;;;5083510;28;20588;-77
2023/12/13 00:46:34;;;;;;;15.53;7.50;;;;;;;;;;5070743;28;20206;-78
2023/12/13 00:49:00;;;;;;;14.53;6.73;;;;;;;;;;5086935;28;20207;-78
2023/12/13 00:51:26;;;;;;;17.07;7.40;;;;;;;;;;5088418;28;20638;-78
2023/12/13 00:53:53;;;;;;;16.37;8.20;;;;;;;;;;5085444;28;20176;-77
2023/12/13 00:56:19;;;;;;;20.03;8.30;;;;;;;;;;5074605;28;20207;-77
2023/12/13 00:58:48;;;;;;;16.43;8.30;;;;;;;;;;5084568;28;20213;-77
2023/12/13 01:01:14;;;;;;;17.20;7.70;;;;;;;;;;5085141;28;20633;-77
2023/12/13 01:03:40;;;;;;;15.60;8.63;;;;;;;;;;5081689;28;20622;-77
2023/12/13 01:06:09;;;;;;;16.57;7.80;;;;;;;;;;5081802;28;20206;-78
2023/12/13 01:08:36;;;;;;;21.40;8.53;;;;;;;;;;5068077;28;20332;-80
2023/12/13 01:11:02;;;;;;;19.47;8.83;;;;;;;;;;5085376;28;20632;-77
2023/12/13 01:13:28;;;;;;;17.33;8.73;;;;;;;;;;5074147;28;20294;-76
2023/12/13 01:15:54;;;;;;;20.23;8.10;;;;;;;;;;5081432;28;20215;-76
2023/12/13 01:18:20;;;;;;;16.60;8.70;;;;;;;;;;5085063;28;20167;-77
2023/12/13 01:20:46;;;;;;;17.27;9.60;;;;;;;;;;5086391;28;20732;-77
2023/12/13 01:23:12;;;;;;;19.20;8.83;;;;;;;;;;5083211;28;20202;-76
2023/12/13 01:25:38;;;;;;;18.20;8.07;;;;;;;;;;5081693;28;20737;-77
2023/12/13 01:28:04;;;;;;;18.43;8.27;;;;;;;;;;5067308;28;20237;-77
2023/12/13 01:30:30;;;;;;;17.13;8.67;;;;;;;;;;5081540;28;20222;-77
2023/12/13 01:32:56;;;;;;;20.80;9.27;;;;;;;;;;5085757;28;20261;-76
2023/12/13 01:35:22;;;;;;;16.43;7.70;;;;;;;;;;5065316;28;20599;-77
2023/12/13 01:37:48;;;;;;;18.97;8.93;;;;;;;;;;5084071;28;20202;-76
2023/12/13 01:40:14;;;;;;;17.47;8.20;;;;;;;;;;5081184;28;20557;-77
2023/12/13 01:42:40;;;;;;;20.07;8.93;;;;;;;;;;5082668;28;20286;-78
2023/12/13 01:45:08;;;;;;;18.77;8.97;;;;;;;;;;5079008;28;21238;-78
2023/12/13 01:47:34;;;;;;;18.67;8.97;;;;;;;;;;5079238;28;20563;-77
2023/12/13 01:50:00;;;;;;;19.37;8.63;;;;;;;;;;5079865;28;20206;-77
2023/12/13 01:52:26;;;;;;;17.77;8.33;;;;;;;;;;5082801;28;20203;-77
2023/12/13 01:54:52;;;;;;;15.73;8.43;;;;;;;;;;5080921;28;20206;-78
2023/12/13 01:57:18;;;;;;;16.50;9.53;;;;;;;;;;5078852;28;20174;-77
2023/12/13 01:59:45;;;;;;;17.27;8.90;;;;;;;;;;5081239;28;20175;-77
2023/12/13 02:02:11;;;;;;;20.53;9.13;;;;;;;;;;5081749;28;20195;-76
2023/12/13 02:04:38;;;;;;;16.33;8.40;;;;;;;;;;5084079;28;20218;-78
2023/12/13 02:07:05;;;;;;;17.33;9.13;;;;;;;;;;5082272;28;20723;-77
2023/12/13 02:09:31;;;;;;;15.23;8.70;;;;;;;;;;5081521;28;20203;-79
2023/12/13 02:11:57;;;;;;;15.83;8.07;;;;;;;;;;5082892;28;20186;-77
2023/12/13 02:14:25;;;;;;;16.20;8.03;;;;;;;;;;5083957;28;20239;-78
2023/12/13 02:16:53;;;;;;;17.77;9.13;;;;;;;;;;5082089;28;20210;-78
2023/12/13 02:19:19;;;;;;;14.23;8.40;;;;;;;;;;5081952;28;20218;-79
2023/12/13 02:21:45;;;;;;;19.43;8.60;;;;;;;;;;5078584;28;20298;-78
2023/12/13 02:24:11;;;;;;;17.63;8.13;;;;;;;;;;5061786;28;20289;-78
2023/12/13 02:26:42;;;;;;;14.83;9.17;;;;;;;;;;5083704;28;20682;-78
2023/12/13 02:29:08;;;;;;;14.30;8.20;;;;;;;;;;5080282;28;20199;-78
2023/12/13 02:31:35;;;;;;;13.73;7.33;;;;;;;;;;5083192;28;20260;-78
2023/12/13 02:34:01;;;;;;;15.70;8.00;;;;;;;;;;5080356;28;20201;-77
2023/12/13 02:36:27;;;;;;;13.00;7.80;;;;;;;;;;5080893;28;20274;-78
2023/12/13 02:38:53;;;;;;;11.43;6.97;;;;;;;;;;5081659;28;20181;-78
2023/12/13 02:41:19;;;;;;;14.23;8.50;;;;;;;;;;5080745;28;20214;-79
2023/12/13 02:43:45;;;;;;;19.70;8.23;;;;;;;;;;5083884;28;20244;-78
2023/12/13 02:46:11;;;;;;;16.63;7.73;;;;;;;;;;5077122;28;20250;-78
2023/12/13 02:48:37;;;;;;;17.83;7.63;;;;;;;;;;5080696;28;20210;-78
2023/12/13 02:51:03;;;;;;;17.07;8.10;;;;;;;;;;5073968;28;20183;-79
2023/12/13 02:53:29;;;;;;;14.37;8.50;;;;;;;;;;5082121;28;20206;-78
2023/12/13 02:55:55;;;;;;;17.90;8.83;;;;;;;;;;5058367;28;20218;-79
2023/12/13 02:58:22;;;;;;;22.17;8.13;;;;;;;;;;5077768;28;20206;-78
2023/12/13 03:00:50;;;;;;;17.20;8.87;;;;;;;;;;5077468;28;20203;-79
2023/12/13 03:03:16;;;;;;;15.30;8.90;;;;;;;;;;5048236;28;20265;-79
2023/12/13 03:05:42;;;;;;;16.20;8.70;;;;;;;;;;5084164;28;20234;-79
2023/12/13 03:08:08;;;;;;;13.07;7.20;;;;;;;;;;5076384;28;20207;-78
2023/12/13 03:10:34;;;;;;;15.80;7.30;;;;;;;;;;5079171;28;20241;-78
2023/12/13 03:13:00;;;;;;;13.87;7.70;;;;;;;;;;5074581;28;20240;-78
2023/12/13 03:15:26;;;;;;;16.03;8.63;;;;;;;;;;5074502;28;20328;-78
2023/12/13 03:17:52;;;;;;;13.93;7.97;;;;;;;;;;5080115;28;20178;-78
2023/12/13 03:20:18;;;;;;;16.57;7.27;;;;;;;;;;5076926;28;20777;-78
2023/12/13 03:22:45;;;;;;;14.77;7.77;;;;;;;;;;5074872;28;20255;-78
2023/12/13 03:25:11;;;;;;;15.20;8.13;;;;;;;;;;5083217;28;20583;-77
2023/12/13 03:27:42;;;;;;;13.70;7.43;;;;;;;;;;5078010;28;20612;-77
2023/12/13 03:30:08;;;;;;;15.07;8.43;;;;;;;;;;5077206;28;20194;-78
2023/12/13 03:32:34;;;;;;;16.17;8.07;;;;;;;;;;5074354;28;20275;-77
2023/12/13 03:35:00;;;;;;;17.80;8.20;;;;;;;;;;5074055;28;20332;-77
2023/12/13 03:37:28;;;;;;;16.13;7.53;;;;;;;;;;5073061;28;20210;-78
2023/12/13 03:39:54;;;;;;;19.70;8.30;;;;;;;;;;5079388;28;20327;-78
2023/12/13 03:42:20;;;;;;;14.77;8.00;;;;;;;;;;5072584;28;20629;-77
2023/12/13 03:44:46;;;;;;;12.20;7.20;;;;;;;;;;5075290;28;20226;-78
2023/12/13 03:47:12;;;;;;;15.37;7.80;;;;;;;;;;5076064;28;20205;-77
2023/12/13 03:49:38;;;;;;;16.20;8.67;;;;;;;;;;5072760;28;20288;-77
2023/12/13 03:52:07;;;;;;;18.03;9.03;;;;;;;;;;5080041;28;20614;-77
2023/12/13 03:54:33;;;;;;;16.17;8.43;;;;;;;;;;5073613;28;20213;-77
2023/12/13 03:56:59;;;;;;;17.37;7.43;;;;;;;;;;5074109;28;20194;-77
2023/12/13 03:59:25;;;;;;;16.07;8.97;;;;;;;;;;5075145;28;20869;-77
2023/12/13 04:01:51;;;;;;;15.90;8.33;;;;;;;;;;5065477;28;20233;-77
2023/12/13 04:04:17;;;;;;;14.97;8.37;;;;;;;;;;5081083;28;20284;-78
2023/12/13 04:06:43;;;;;;;13.40;7.33;;;;;;;;;;5080160;28;20709;-77
2023/12/13 04:09:09;;;;;;;17.87;8.17;;;;;;;;;;5073071;28;20179;-78
2023/12/13 04:11:35;;;;;;;14.87;8.23;;;;;;;;;;5079452;28;20224;-78
2023/12/13 04:14:01;;;;;;;13.97;7.97;;;;;;;;;;5077012;28;20215;-77
2023/12/13 04:16:27;;;;;;;16.17;8.37;;;;;;;;;;5073073;28;20283;-77
2023/12/13 04:18:53;;;;;;;15.83;8.00;;;;;;;;;;5068167;28;20202;-77
2023/12/13 04:21:19;;;;;;;16.77;8.30;;;;;;;;;;5073938;28;20171;-78
2023/12/13 04:23:45;;;;;;;14.03;7.57;;;;;;;;;;5073800;28;20179;-78
2023/12/13 04:26:11;;;;;;;14.17;8.03;;;;;;;;;;5072454;28;20222;-74
2023/12/13 04:28:37;;;;;;;16.17;8.57;;;;;;;;;;5075522;28;20227;-77
2023/12/13 04:31:03;;;;;;;19.97;9.23;;;;;;;;;;5072831;28;20203;-77
2023/12/13 04:33:31;;;;;;;15.67;8.70;;;;;;;;;;5076507;28;20672;-77
2023/12/13 04:35:58;;;;;;;16.00;8.37;;;;;;;;;;5071360;28;20214;-78
2023/12/13 04:38:24;;;;;;;15.93;8.50;;;;;;;;;;5057971;28;20190;-77
2023/12/13 04:40:50;;;;;;;16.20;7.53;;;;;;;;;;5073285;28;20209;-77
2023/12/13 04:43:16;;;;;;;14.40;8.27;;;;;;;;;;5075580;28;20553;-78
2023/12/13 04:45:42;;;;;;;18.53;8.13;;;;;;;;;;5068632;28;20215;-77
2023/12/13 04:48:08;;;;;;;16.03;8.30;;;;;;;;;;5072007;28;20230;-77
2023/12/13 04:50:34;;;;;;;16.07;7.73;;;;;;;;;;5076878;28;20653;-77
2023/12/13 04:53:02;;;;;;;17.70;8.50;;;;;;;;;;5073963;28;20210;-77
2023/12/13 04:55:28;;;;;;;23.70;8.73;;;;;;;;;;5074011;28;20827;-77
2023/12/13 04:57:54;;;;;;;15.60;8.30;;;;;;;;;;5075200;28;20210;-78
2023/12/13 05:00:20;;;;;;;14.60;8.70;;;;;;;;;;5078501;28;20197;-78
2023/12/13 05:02:47;;;;;;;14.03;8.37;;;;;;;;;;5067814;28;20531;-78
2023/12/13 05:05:13;;;;;;;19.40;8.93;;;;;;;;;;5077906;28;20217;-78
2023/12/13 05:07:39;;;;;;;13.80;7.80;;;;;;;;;;5073936;28;20202;-78
2023/12/13 05:10:06;;;;;;;19.27;8.30;;;;;;;;;;5072658;28;20225;-78
2023/12/13 05:12:32;;;;;;;16.53;8.90;;;;;;;;;;5075125;28;20198;-77
2023/12/13 05:14:58;;;;;;;15.47;8.30;;;;;;;;;;5078409;28;20183;-78
2023/12/13 05:17:24;;;;;;;17.77;9.10;;;;;;;;;;5079362;28;20285;-78
2023/12/13 05:19:50;;;;;;;18.73;8.70;;;;;;;;;;5080620;28;20567;-77
2023/12/13 05:22:16;;;;;;;18.07;8.73;;;;;;;;;;5076234;28;20293;-78
2023/12/13 05:24:42;;;;;;;22.60;9.67;;;;;;;;;;5082214;28;20293;-78
2023/12/13 05:27:08;;;;;;;18.43;9.60;;;;;;;;;;5068730;28;20206;-78
2023/12/13 05:29:35;;;;;;;18.03;8.70;;;;;;;;;;5085139;28;20179;-78
2023/12/13 05:32:01;;;;;;;22.27;8.90;;;;;;;;;;5059941;28;20577;-78
2023/12/13 05:34:27;;;;;;;14.90;8.17;;;;;;;;;;5078350;28;20202;-78
2023/12/13 05:36:53;;;;;;;17.67;9.27;;;;;;;;;;5085094;28;20198;-78
2023/12/13 05:39:19;;;;;;;20.80;9.47;;;;;;;;;;5080513;28;20175;-78
2023/12/13 05:41:45;;;;;;;15.53;8.80;;;;;;;;;;5083826;28;20171;-77
2023/12/13 05:44:11;;;;;;;18.70;9.37;;;;;;;;;;5058405;28;20711;-77
2023/12/13 05:46:37;;;;;;;19.33;9.90;;;;;;;;;;5060117;28;20208;-78
2023/12/13 05:49:05;;;;;;;16.27;9.40;;;;;;;;;;5078645;28;20306;-78
2023/12/13 05:51:31;;;;;;;18.53;9.90;;;;;;;;;;5057736;28;20203;-78
2023/12/13 05:53:57;;;;;;;18.30;9.80;;;;;;;;;;5078215;28;20198;-78
2023/12/13 05:56:23;;;;;;;14.13;8.40;;;;;;;;;;5078609;28;20812;-78
2023/12/13 05:58:49;;;;;;;15.83;9.50;;;;;;;;;;5079226;28;20202;-78
2023/12/13 06:01:15;;;;;;;21.60;10.70;;;;;;;;;;5078004;28;20581;-77
2023/12/13 06:03:41;;;;;;;18.00;9.97;;;;;;;;;;5063203;28;20210;-78
2023/12/13 06:06:07;;;;;;;15.30;9.13;;;;;;;;;;5084472;28;20223;-77
2023/12/13 06:08:33;;;;;;;17.20;9.50;;;;;;;;;;5077159;28;20550;-77
2023/12/13 06:10:59;;;;;;;21.23;9.47;;;;;;;;;;5083895;28;20206;-78
2023/12/13 06:13:25;;;;;;;17.43;8.67;;;;;;;;;;5082234;28;20222;-78
2023/12/13 06:15:53;;;;;;;16.50;8.90;;;;;;;;;;5078911;28;20219;-78
2023/12/13 06:18:19;;;;;;;16.90;9.03;;;;;;;;;;5062507;28;20202;-77
2023/12/13 06:20:45;;;;;;;21.53;9.93;;;;;;;;;;5060597;28;20195;-78
2023/12/13 06:23:11;;;;;;;18.73;10.67;;;;;;;;;;5081221;28;20221;-75
2023/12/13 06:25:37;;;;;;;18.77;9.43;;;;;;;;;;5080796;28;20249;-77
2023/12/13 06:28:04;;;;;;;14.83;9.07;;;;;;;;;;5079183;28;20202;-78
2023/12/13 06:30:30;;;;;;;21.93;9.43;;;;;;;;;;5078115;28;20296;-77
2023/12/13 06:32:56;;;;;;;18.43;9.33;;;;;;;;;;5073664;28;20179;-78
2023/12/13 06:35:22;;;;;;;16.97;9.43;;;;;;;;;;5077772;28;20214;-78
2023/12/13 06:37:48;;;;;;;15.10;9.13;;;;;;;;;;5083957;28;20229;-78
2023/12/13 06:40:14;;;;;;;15.43;9.93;;;;;;;;;;5077579;28;20637;-78
2023/12/13 06:42:41;;;;;;;13.53;7.57;;;;;;;;;;5074769;28;20206;-77
2023/12/13 06:45:08;;;;;;;17.90;9.70;;;;;;;;;;5075962;28;20343;-77
2023/12/13 06:47:34;;;;;;;16.03;9.70;;;;;;;;;;5071814;28;20577;-78
2023/12/13 06:50:00;;;;;;;14.77;9.23;;;;;;;;;;5076113;28;20684;-77
2023/12/13 06:52:26;;;;;;;16.60;8.40;;;;;;;;;;5071019;28;20203;-76
2023/12/13 06:54:52;;;;;;;13.07;7.77;;;;;;;;;;5069798;28;20206;-80
2023/12/13 06:57:18;;;;;;;15.33;8.70;;;;;;;;;;5081533;28;20171;-76
2023/12/13 06:59:44;;;;;;;15.10;7.67;;;;;;;;;;5054616;28;20309;-77
2023/12/13 07:02:10;;;;;;;13.37;7.83;;;;;;;;;;5072128;28;20214;-77
2023/12/13 07:04:36;;;;;;;14.23;8.20;;;;;;;;;;5080961;28;20218;-78
2023/12/13 07:07:02;;;;;;;15.67;8.47;;;;;;;;;;5070566;28;20207;-79
2023/12/13 07:09:28;;;;;;;13.27;7.37;;;;;;;;;;5070305;28;20222;-77
2023/12/13 07:11:54;;;;;;;13.13;7.73;;;;;;;;;;5074974;28;20171;-79
2023/12/13 07:14:20;;;;;;;10.63;6.87;;;;;;;;;;5073950;28;20298;-79
2023/12/13 07:16:46;;;;;;;12.50;7.30;;;;;;;;;;5080007;28;20834;-78
2023/12/13 07:19:12;;;;;;;13.07;7.47;;;;;;;;;;5082165;28;20236;-78
2023/12/13 07:21:38;;;;;;;11.57;7.03;;;;;;;;;;5077897;28;20203;-77
2023/12/13 07:24:04;;;;;;;13.90;7.27;;;;;;;;;;5073670;28;20178;-78
2023/12/13 07:26:30;;;;;;;14.03;7.40;;;;;;;;;;5070065;28;20211;-78
2023/12/13 07:28:56;;;;;;;12.00;6.90;;;;;;;;;;5073077;28;20222;-77
2023/12/13 07:31:23;;;;;;;11.87;6.53;;;;;;;;;;5068452;28;20221;-76
2023/12/13 07:33:49;;;;;;;14.77;7.23;;;;;;;;;;5078824;28;20198;-75
2023/12/13 07:36:15;;;;;;;10.43;6.43;;;;;;;;;;5078796;28;20218;-78
2023/12/13 07:38:41;;;;;;;10.30;6.17;;;;;;;;;;5078310;28;20178;-78
2023/12/13 07:41:07;;;;;;;10.97;6.50;;;;;;;;;;5081888;28;20202;-78
2023/12/13 07:43:33;;;;;;;10.63;6.37;;;;;;;;;;5081913;28;20617;-78
2023/12/13 07:45:59;;;;;;;14.63;6.67;;;;;;;;;;5078633;28;20240;-79
2023/12/13 07:48:25;;;;;;;11.20;6.40;;;;;;;;;;5078939;28;20179;-79
2023/12/13 07:50:53;;;;;;;9.97;6.33;;;;;;;;;;5080783;28;20173;-78
2023/12/13 07:53:19;;;;;;;12.17;6.03;;;;;;;;;;5077867;28;20260;-78
2023/12/13 07:55:46;;;;;;;10.27;6.33;;;;;;;;;;5080658;28;20641;-79
2023/12/13 07:58:12;;;;;;;13.00;7.20;;;;;;;;;;5078359;28;20249;-79
2023/12/13 08:00:38;;;;;;;10.80;6.20;;;;;;;;;;5072716;28;20223;-79
2023/12/13 08:03:04;;;;;;;11.33;7.03;;;;;;;;;;5079900;28;20818;-79
2023/12/13 08:05:30;;;;;;;12.40;7.33;;;;;;;;;;5077711;28;20242;-80
2023/12/13 08:07:56;;;;;;;11.23;7.37;;;;;;;;;;5077503;28;20293;-79
2023/12/13 08:10:23;;;;;;;10.60;6.57;;;;;;;;;;5078937;28;20278;-79
2023/12/13 08:12:49;;;;;;;51.00;21.60;;;;;;;;;;5078166;28;20849;-79
2023/12/13 08:15:15;;;;;;;16.70;8.00;;;;;;;;;;5079374;28;20202;-77
2023/12/13 08:17:41;;;;;;;11.90;7.30;;;;;;;;;;5077055;28;20240;-79
2023/12/13 08:20:07;;;;;;;12.63;7.67;;;;;;;;;;5081225;28;20210;-78
2023/12/13 08:22:33;;;;;;;16.37;8.20;;;;;;;;;;5076570;28;20618;-78
2023/12/13 08:24:59;;;;;;;12.77;7.50;;;;;;;;;;5080402;28;20259;-78
2023/12/13 08:27:25;;;;;;;15.13;7.93;;;;;;;;;;5080976;28;20182;-78
2023/12/13 08:29:52;;;;;;;12.47;7.43;;;;;;;;;;5082159;28;20255;-79
2023/12/13 08:32:18;;;;;;;17.93;8.23;;;;;;;;;;5065964;28;20272;-79
2023/12/13 08:34:44;;;;;;;14.70;8.87;;;;;;;;;;5068178;28;20252;-79
2023/12/13 08:37:10;;;;;;;15.33;8.43;;;;;;;;;;5079653;28;20217;-79
2023/12/13 08:39:36;;;;;;;14.50;8.77;;;;;;;;;;5077400;28;20209;-79
2023/12/13 08:42:03;;;;;;;16.23;8.33;;;;;;;;;;5081543;28;20177;-78
2023/12/13 08:44:29;;;;;;;15.93;7.97;;;;;;;;;;5079068;28;20258;-78
2023/12/13 08:46:56;;;;;;;14.93;8.53;;;;;;;;;;5060552;28;20214;-81
2023/12/13 08:49:22;;;;;;;16.20;9.30;;;;;;;;;;5083799;28;20223;-79
2023/12/13 08:51:48;;;;;;;20.10;8.67;;;;;;;;;;5081548;28;20570;-78
2023/12/13 08:54:14;;;;;;;19.57;9.87;;;;;;;;;;5066168;28;20181;-79
2023/12/13 08:56:40;;;;;;;19.93;10.53;;;;;;;;;;5084628;28;20225;-78
2023/12/13 08:59:06;;;;;;;17.30;9.90;;;;;;;;;;5064085;28;20209;-79
2023/12/13 09:01:32;;;;;;;15.10;9.47;;;;;;;;;;5078473;28;20230;-79
2023/12/13 09:03:59;;;;;;;17.93;9.60;;;;;;;;;;5083872;28;20232;-79
2023/12/13 09:06:25;;;;;;;18.10;10.20;;;;;;;;;;5081709;28;20201;-79
2023/12/13 09:08:51;;;;;;;22.33;11.53;;;;;;;;;;5085840;28;20170;-78
2023/12/13 09:11:18;;;;;;;20.17;10.17;;;;;;;;;;5081676;28;20207;-77
2023/12/13 09:13:44;;;;;;;19.97;10.20;;;;;;;;;;5081520;28;20270;-80
2023/12/13 09:16:10;;;;;;;21.47;10.40;;;;;;;;;;5083308;28;20205;-79
2023/12/13 09:18:36;;;;;;;21.40;11.20;;;;;;;;;;5082076;28;20229;-79
2023/12/13 09:21:03;;;;;;;21.50;11.47;;;;;;;;;;5082222;28;20175;-79
2023/12/13 09:23:29;;;;;;;24.90;12.57;;;;;;;;;;5084659;28;20285;-79
2023/12/13 09:25:58;;;;;;;20.90;11.70;;;;;;;;;;5082355;28;20349;-78
2023/12/13 09:28:24;;;;;;;19.10;11.07;;;;;;;;;;5065468;28;20248;-80
2023/12/13 09:30:50;;;;;;;20.90;10.47;;;;;;;;;;5063421;28;20277;-79
2023/12/13 09:33:16;;;;;;;21.70;11.50;;;;;;;;;;5081447;28;20177;-79
2023/12/13 09:35:42;;;;;;;27.00;12.40;;;;;;;;;;5081668;28;20195;-80
2023/12/13 09:38:08;;;;;;;21.37;11.67;;;;;;;;;;5086448;28;20290;-79
2023/12/13 09:40:34;;;;;;;21.37;11.70;;;;;;;;;;5081617;28;20763;-78
2023/12/13 09:43:01;;;;;;;23.50;12.17;;;;;;;;;;5066521;28;20608;-79
2023/12/13 09:45:27;;;;;;;23.80;11.87;;;;;;;;;;5080466;28;20325;-79
2023/12/13 09:47:53;;;;;;;22.87;12.70;;;;;;;;;;5066608;28;20592;-79
2023/12/13 09:50:19;;;;;;;26.53;13.07;;;;;;;;;;5062313;28;20577;-79
2023/12/13 09:52:46;;;;;;;24.37;11.90;;;;;;;;;;5081818;28;20241;-79
2023/12/13 09:55:12;;;;;;;22.57;12.53;;;;;;;;;;5084161;28;20230;-79
2023/12/13 09:57:39;;;;;;;23.73;12.83;;;;;;;;;;5083838;28;20262;-79
2023/12/13 10:00:15;;;;;;;22.40;11.63;;;;;;;;;;5083233;28;20171;-80
2023/12/13 10:02:41;;;;;;;23.77;11.47;;;;;;;;;;5079930;28;20210;-80
2023/12/13 10:05:08;;;;;;;20.13;11.03;;;;;;;;;;5078517;28;20211;-78
2023/12/13 10:07:34;;;;;;;23.43;11.33;;;;;;;;;;5079085;28;20250;-79
2023/12/13 10:10:00;;;;;;;21.57;11.33;;;;;;;;;;5084353;28;20205;-79
2023/12/13 10:12:26;;;;;;;22.67;11.87;;;;;;;;;;5081083;28;20202;-79
2023/12/13 10:14:53;;;;;;;20.87;11.73;;;;;;;;;;5082246;28;20193;-79
2023/12/13 10:17:21;;;;;;;25.43;12.70;;;;;;;;;;5077230;28;20209;-79
2023/12/13 10:19:47;;;;;;;23.33;12.30;;;;;;;;;;5078799;28;20203;-79
2023/12/13 10:22:13;;;;;;;23.83;12.40;;;;;;;;;;5083777;28;20200;-79
2023/12/13 10:24:41;;;;;;;22.97;11.67;;;;;;;;;;5083594;28;20202;-79
2023/12/13 10:27:07;;;;;;;22.73;10.83;;;;;;;;;;5084177;28;20186;-79
2023/12/13 10:29:33;;;;;;;24.33;12.60;;;;;;;;;;5080609;28;20262;-79
2023/12/13 10:32:00;;;;;;;23.13;11.70;;;;;;;;;;5078329;28;20199;-79
2023/12/13 10:34:27;;;;;;;25.77;12.20;;;;;;;;;;5079395;28;20238;-79
2023/12/13 10:36:54;;;;;;;22.40;11.97;;;;;;;;;;5065746;28;20209;-79
2023/12/13 10:39:22;;;;;;;27.03;12.73;;;;;;;;;;5080722;28;20502;-80
2023/12/13 10:41:51;;;;;;;25.00;13.07;;;;;;;;;;5065142;28;20174;-79
2023/12/13 10:44:17;;;;;;;23.23;11.97;;;;;;;;;;5080166;28;20233;-79
2023/12/13 10:46:47;;;;;;;22.90;11.70;;;;;;;;;;5080612;28;20232;-79
2023/12/13 10:49:16;;;;;;;20.83;10.33;;;;;;;;;;5078434;28;20284;-80
2023/12/13 10:51:44;;;;;;;19.90;11.47;;;;;;;;;;5079617;28;20203;-79
2023/12/13 10:54:12;;;;;;;21.43;12.33;;;;;;;;;;5077139;28;20219;-79
2023/12/13 10:56:39;;;;;;;23.63;11.73;;;;;;;;;;5082947;28;20199;-80
2023/12/13 10:59:06;;;;;;;24.77;11.97;;;;;;;;;;5082203;28;20331;-79
2023/12/13 11:01:32;;;;;;;22.67;11.47;;;;;;;;;;5078448;28;20206;-79
2023/12/13 11:04:04;;;;;;;21.83;11.67;;;;;;;;;;5084710;28;20230;-80
2023/12/13 11:06:30;;;;;;;21.80;11.17;;;;;;;;;;5083631;28;20225;-80
2023/12/13 11:08:57;;;;;;;25.13;12.77;;;;;;;;;;5094007;28;20269;-80
2023/12/13 11:11:27;;;;;;;21.00;11.87;;;;;;;;;;5089152;28;20240;-80
2023/12/13 11:13:54;;;;;;;20.60;11.60;;;;;;;;;;5070889;28;20276;-79
2023/12/13 11:16:21;;;;;;;19.30;10.43;;;;;;;;;;5086839;28;20211;-77
2023/12/13 11:18:49;;;;;;;20.20;10.83;;;;;;;;;;5081112;28;20202;-80
2023/12/13 11:21:30;;;;;;;23.60;12.00;;;;;;;;;;5085710;28;20171;-80
2023/12/13 11:24:00;;;;;;;19.20;10.80;;;;;;;;;;5081752;28;20196;-79
2023/12/13 11:26:32;;;;;;;19.33;9.97;;;;;;;;;;5088204;28;20218;-79
2023/12/13 11:29:00;;;;;;;22.20;10.63;;;;;;;;;;5091232;28;20285;-79
2023/12/13 11:31:26;;;;;;;22.67;11.23;;;;;;;;;;5079700;28;20230;-80
2023/12/13 11:33:56;;;;;;;17.83;10.03;;;;;;;;;;5086260;28;20199;-78
2023/12/13 11:36:24;;;;;;;24.73;11.97;;;;;;;;;;5065352;28;20394;-79
2023/12/13 11:38:51;;;;;;;19.53;9.93;;;;;;;;;;5086901;28;20179;-79
2023/12/13 11:41:17;;;;;;;22.23;11.43;;;;;;;;;;5086187;28;20312;-79
2023/12/13 11:43:44;;;;;;;20.10;11.67;;;;;;;;;;5084645;28;20562;-79
2023/12/13 11:46:10;;;;;;;22.93;11.27;;;;;;;;;;5078613;28;20264;-78
2023/12/13 11:48:37;;;;;;;22.70;11.63;;;;;;;;;;5077486;28;20207;-78
2023/12/13 11:51:03;;;;;;;23.73;11.93;;;;;;;;;;5079394;28;20234;-79
2023/12/13 11:53:29;;;;;;;18.80;10.70;;;;;;;;;;5079746;28;20202;-78
2023/12/13 11:55:56;;;;;;;18.40;10.80;;;;;;;;;;5081504;28;20233;-78
2023/12/13 11:58:22;;;;;;;21.60;11.07;;;;;;;;;;5076551;28;20274;-78
2023/12/13 12:00:48;;;;;;;20.07;10.77;;;;;;;;;;5076006;28;20610;-79
2023/12/13 12:03:14;;;;;;;20.10;10.70;;;;;;;;;;5078286;28;20224;-79
2023/12/13 12:05:41;;;;;;;22.90;10.90;;;;;;;;;;5076410;28;20639;-78
2023/12/13 12:08:08;;;;;;;21.13;11.20;;;;;;;;;;5078535;28;20198;-78
2023/12/13 12:10:34;;;;;;;19.93;11.00;;;;;;;;;;5080908;28;20672;-78
2023/12/13 12:13:01;;;;;;;19.27;10.10;;;;;;;;;;5082234;28;20217;-78
2023/12/13 12:15:27;;;;;;;19.13;9.43;;;;;;;;;;5077498;28;20210;-79
2023/12/13 12:17:57;;;;;;;17.30;9.13;;;;;;;;;;5078646;28;20220;-78
2023/12/13 12:20:27;;;;;;;17.80;10.70;;;;;;;;;;5075498;28;20291;-77
2023/12/13 12:22:53;;;;;;;22.27;10.87;;;;;;;;;;5081865;28;20202;-78
2023/12/13 12:25:20;;;;;;;17.50;9.53;;;;;;;;;;5076551;28;20714;-78
2023/12/13 12:27:49;;;;;;;18.73;10.17;;;;;;;;;;5076528;28;20251;-78
2023/12/13 12:30:19;;;;;;;21.67;10.27;;;;;;;;;;5080083;28;20236;-78
2023/12/13 12:32:45;;;;;;;20.90;10.17;;;;;;;;;;5071207;28;20297;-78
2023/12/13 12:35:11;;;;;;;19.60;10.40;;;;;;;;;;5079820;28;20588;-79
2023/12/13 12:37:37;;;;;;;19.17;10.03;;;;;;;;;;5075752;28;20741;-78
2023/12/13 12:40:06;;;;;;;26.43;10.80;;;;;;;;;;5080422;28;20281;-78
2023/12/13 12:42:33;;;;;;;22.43;10.70;;;;;;;;;;5078967;28;20206;-77
2023/12/13 12:44:59;;;;;;;19.70;10.20;;;;;;;;;;5078045;28;20657;-78
2023/12/13 12:47:24;;;;;;;21.10;10.73;;;;;;;;;;5060394;28;20213;-79
2023/12/13 12:49:52;;;;;;;18.40;10.00;;;;;;;;;;5078149;28;20203;-78
2023/12/13 12:52:19;;;;;;;21.30;10.33;;;;;;;;;;5075615;28;20204;-80
2023/12/13 12:54:45;;;;;;;19.83;9.57;;;;;;;;;;5080160;28;20202;-79
2023/12/13 12:57:11;;;;;;;19.77;10.20;;;;;;;;;;5078769;28;20326;-80
2023/12/13 12:59:37;;;;;;;19.33;9.83;;;;;;;;;;5055531;28;20190;-80
2023/12/13 13:02:03;;;;;;;23.90;11.43;;;;;;;;;;5078121;28;20342;-79
2023/12/13 13:04:30;;;;;;;19.73;10.30;;;;;;;;;;5078257;28;20605;-79
2023/12/13 13:06:56;;;;;;;26.30;11.43;;;;;;;;;;5076470;28;20206;-79
2023/12/13 13:09:22;;;;;;;20.70;11.03;;;;;;;;;;5061026;28;20228;-78
2023/12/13 13:11:48;;;;;;;18.60;9.03;;;;;;;;;;5076690;28;20526;-79
2023/12/13 13:14:14;;;;;;;16.37;9.63;;;;;;;;;;5080181;28;20354;-79
2023/12/13 13:16:40;;;;;;;17.57;9.17;;;;;;;;;;5077588;28;20304;-79
2023/12/13 13:19:06;;;;;;;21.37;10.03;;;;;;;;;;5081517;28;20704;-78
2023/12/13 13:21:35;;;;;;;22.27;10.00;;;;;;;;;;5079823;28;20202;-79
2023/12/13 13:24:01;;;;;;;20.40;10.37;;;;;;;;;;5079614;28;20174;-80
2023/12/13 13:26:27;;;;;;;18.27;10.37;;;;;;;;;;5079505;28;20215;-78
2023/12/13 13:28:53;;;;;;;22.47;10.33;;;;;;;;;;5081516;28;20194;-79
2023/12/13 13:31:21;;;;;;;18.93;9.73;;;;;;;;;;5078263;28;20732;-78
2023/12/13 13:33:47;;;;;;;20.60;11.50;;;;;;;;;;5077515;28;20202;-79
2023/12/13 13:36:13;;;;;;;21.53;10.40;;;;;;;;;;5080692;28;20194;-77
2023/12/13 13:38:39;;;;;;;23.53;10.43;;;;;;;;;;5081993;28;20185;-79
2023/12/13 13:41:06;;;;;;;18.57;10.00;;;;;;;;;;5085397;28;20198;-78
2023/12/13 13:43:32;;;;;;;21.23;10.50;;;;;;;;;;5084975;28;20330;-79
2023/12/13 13:45:58;;;;;;;17.03;8.70;;;;;;;;;;5083794;28;20271;-79
2023/12/13 13:48:25;;;;;;;19.40;9.97;;;;;;;;;;5081262;28;20593;-79
2023/12/13 13:50:51;;;;;;;18.83;10.00;;;;;;;;;;5081354;28;20179;-80
2023/12/13 13:53:17;;;;;;;21.90;10.03;;;;;;;;;;5081707;28;20202;-79
2023/12/13 13:55:47;;;;;;;20.60;10.53;;;;;;;;;;5082990;28;20285;-80
2023/12/13 13:58:14;;;;;;;19.40;9.53;;;;;;;;;;5078709;28;20625;-79
2023/12/13 14:00:40;;;;;;;20.17;9.47;;;;;;;;;;5079936;28;20215;-77
2023/12/13 14:03:06;;;;;;;19.40;10.33;;;;;;;;;;5084142;28;20264;-79
2023/12/13 14:05:35;;;;;;;18.57;9.97;;;;;;;;;;5081099;28;20737;-80
2023/12/13 14:08:06;;;;;;;18.73;10.40;;;;;;;;;;5084897;28;20228;-79
2023/12/13 14:10:32;;;;;;;23.80;12.60;;;;;;;;;;5081259;28;20223;-79
2023/12/13 14:12:58;;;;;;;25.90;11.30;;;;;;;;;;5064008;28;20583;-79
2023/12/13 14:15:24;;;;;;;21.73;10.23;;;;;;;;;;5083526;28;20198;-79
2023/12/13 14:17:50;;;;;;;23.47;11.63;;;;;;;;;;5066369;28;20537;-79
2023/12/13 14:20:16;;;;;;;21.10;10.77;;;;;;;;;;5081504;28;20217;-78